Dawson Community Airport
KGDV : now visible

Airfield :











YOU CAN JOIN US ON...

 
LOGIN :

Register | Disclaimer

   EN    FR    IT 

 









Legend :    VFR   Marginal VFR   IFR   Intensive IFR   Very Intensive IFR
Visi :
Ceiling :
>= 8 km
>= 3000ft
5 to 8 km
1000 to 3000 ft
1500m to 5 km
500 to 1000 ft
800 to 1500m
200 to 500 ft
< 800m
< 200 ft
Symbols :   Thunderstorms  Fog  Heavy snow  Heavy precipitations  Wind > 20 kt






- Airport Elevation : 2458 ft


KGDV - Dawson Community

CURRENT METAR :
  • 241756Z AUTO 04008KT 10SM OVC055 M12/M14 A2983 RMK AO2 SLP151 60000 T11221139 11122 21178 58013 FZRANO

EXPIRED METARs :
  • 241656Z AUTO 04007KT 10SM OVC060 M13/M15 A2985 RMK AO2 SLP162 T11331150 FZRANO
  • 241556Z AUTO 05009KT 10SM OVC060 M15/M17 A2985 RMK AO2 SNB35E45 SLP163 P0000 T11501167 FZRANO

TAF KGDV
Valid from the 24 at 18:00 until the 25 at 18:00 UTC


241734Z 2418/2518 VRB05KT P6SM BKN060
FM250800 VRB06KT P6SM BKN015
FM251400 05008KT P6SM BKN008
KZLC FIR / North America



MET'MAP, your aeronautical weather chart ! - Copyright ORBIFLY December 2007 - Disclaimer

ORBIFLY MET'MAP TEAM :

Programming & Development : Alexandra Zaïnal
Concept & original design : Baudouin d'Aumeries
Assistance for programming : Marc-Olivier Méhu
Technical & hardware support : Manuel Goepfert

Contact : metmap@orbifly.com




SOURCES & CREDITS :

   NOAA       Earth
Advisory